Time;durP1;ratioP1;P1;durP2;ratioP2;P2;SDS_P1;SDS_P2;PMS_P1;PMS_P2;Temp;Humidity;BMP_temperature;BMP_pressure;BME280_temperature;BME280_humidity;BME280_pressure;Samples;Min_cycle;Max_cycle;Signal;HPM_P1;HPM_P2
2021/05/23 00:00:20;;;;;;;6.65;2.47;;;;;;;16.43;66.06;101441.38;1787245;80;21194;-70
2021/05/23 00:02:55;;;;;;;8.15;3.60;;;;;;;16.33;66.06;101425.95;1787021;80;21325;-70
2021/05/23 00:05:29;;;;;;;6.70;2.95;;;;;;;16.24;66.15;101427.62;1786970;80;21237;-70
2021/05/23 00:08:06;;;;;;;4.50;3.02;;;;;;;16.18;66.25;101422.58;1786914;79;21379;-69
2021/05/23 00:10:47;;;;;;;5.40;3.02;;;;;;;16.15;66.35;101425.93;1784435;80;21364;-70
2021/05/23 00:13:22;;;;;;;11.63;3.27;;;;;;;16.13;66.32;101435.73;1785800;80;21308;-70
2021/05/23 00:16:07;;;;;;;4.85;2.15;;;;;;;16.11;66.27;101442.19;1787110;80;21830;-71
2021/05/23 00:18:44;;;;;;;5.25;3.00;;;;;;;16.06;66.21;101447.78;1787191;80;21328;-70
2021/05/23 00:21:18;;;;;;;8.43;2.55;;;;;;;16.03;66.11;101443.57;1787100;80;21321;-71
2021/05/23 00:23:51;;;;;;;8.33;2.00;;;;;;;15.97;65.96;101439.66;1787078;80;21364;-75
2021/05/23 00:26:24;;;;;;;4.30;2.35;;;;;;;15.93;65.95;101437.66;1786987;80;21230;-70
2021/05/23 00:28:57;;;;;;;4.28;2.15;;;;;;;15.89;65.78;101442.98;1786933;80;21930;-70
2021/05/23 00:31:32;;;;;;;5.85;2.30;;;;;;;15.87;65.53;101434.56;1787142;80;21324;-69
2021/05/23 00:34:04;;;;;;;7.45;2.22;;;;;;;15.84;65.51;101437.39;1787229;80;21364;-69
2021/05/23 00:36:38;;;;;;;3.97;2.13;;;;;;;15.83;65.31;101432.88;1788033;79;21332;-71
2021/05/23 00:39:13;;;;;;;6.53;2.05;;;;;;;15.81;65.20;101418.88;1806833;79;22385;-69
2021/05/23 00:41:45;;;;;;;6.45;2.02;;;;;;;15.80;65.01;101418.59;1793753;79;21920;-69
2021/05/23 00:44:18;;;;;;;9.75;2.17;;;;;;;15.78;64.81;101419.44;1797147;79;21839;-70
2021/05/23 00:46:51;;;;;;;3.63;1.90;;;;;;;15.77;64.80;101417.19;1750119;82;21667;-69
2021/05/23 00:49:24;;;;;;;5.53;2.02;;;;;;;15.77;64.87;101417.19;1750040;82;21327;-70
2021/05/23 00:51:56;;;;;;;3.60;2.07;;;;;;;15.80;64.81;101413.85;1750253;82;21173;-69
2021/05/23 00:54:29;;;;;;;3.12;1.90;;;;;;;15.81;64.78;101410.47;1749898;82;21906;-70
2021/05/23 00:57:03;;;;;;;;;;;;;;;15.81;64.56;101407.13;1752511;82;21323;-70
2021/05/23 00:59:36;;;;;;;23.77;3.22;;;;;;;15.78;64.75;101412.44;1731541;83;20257;-69
2021/05/23 01:02:42;;;;;;;7.20;2.22;;;;;;;15.72;64.88;101410.20;1731323;83;21898;-70
2021/05/23 01:05:21;;;;;;;4.55;1.80;;;;;;;15.67;64.95;101419.98;1731137;83;21376;-69
2021/05/23 01:07:53;;;;;;;3.50;1.57;;;;;;;15.60;65.33;101418.55;1728332;83;21389;-68
2021/05/23 01:10:28;;;;;;;5.25;1.80;;;;;;;15.60;65.33;101418.55;1701812;83;21385;-70
2021/05/23 01:13:32;;;;;;;5.67;1.82;;;;;;;15.54;65.20;101420.52;1727981;83;21254;-69
2021/05/23 01:16:15;;;;;;;3.45;1.60;;;;;;;15.54;65.20;101420.52;1697976;83;21371;-69
2021/05/23 01:18:59;;;;;;;4.78;1.90;;;;;;;15.55;65.35;101426.39;1728249;82;21705;-70
2021/05/23 01:21:35;;;;;;;6.20;1.70;;;;;;;15.56;65.34;101434.21;1728198;83;21419;-69
2021/05/23 01:24:12;;;;;;;11.45;2.12;;;;;;;15.56;65.47;101427.21;1736389;82;21354;-72
2021/05/23 01:26:52;;;;;;;2.10;1.40;;;;;;;15.54;65.65;101430.31;1736312;82;21564;-70
2021/05/23 01:29:19;;;;;;;5.58;1.72;;;;;;;15.52;65.79;101426.92;1742253;81;21751;-71
2021/05/23 01:31:55;;;;;;;3.75;1.75;;;;;;;15.49;66.00;101423.30;1749795;81;21226;-71
2021/05/23 01:34:27;;;;;;;2.25;1.50;;;;;;;15.46;66.25;101428.02;1736226;82;21763;-70
2021/05/23 01:37:03;;;;;;;3.60;2.22;;;;;;;15.46;66.66;101428.60;1736258;82;21282;-70
2021/05/23 01:39:36;;;;;;;3.92;1.60;;;;;;;15.49;66.79;101433.63;1732519;82;21207;-68
2021/05/23 01:42:12;;;;;;;7.12;2.22;;;;;;;15.52;66.83;101428.33;1736141;82;21236;-74
2021/05/23 01:44:46;;;;;;;5.30;2.55;;;;;;;15.50;66.92;101431.97;1736209;82;21408;-71
2021/05/23 01:47:18;;;;;;;6.28;1.98;;;;;;;15.48;67.22;101432.81;1736547;82;21239;-70
2021/05/23 01:49:50;;;;;;;5.92;2.27;;;;;;;15.50;67.15;101437.56;1736252;82;21695;-70
2021/05/23 01:52:23;;;;;;;4.35;2.25;;;;;;;15.51;67.11;101437.02;1736289;82;21203;-70
2021/05/23 01:54:57;;;;;;;4.42;2.30;;;;;;;15.46;67.21;101436.42;1736243;82;21182;-69
2021/05/23 01:57:30;;;;;;;5.60;2.08;;;;;;;15.42;67.56;101440.05;1736216;82;21305;-70
2021/05/23 02:00:04;;;;;;;4.72;2.00;;;;;;;15.44;67.63;101442.86;1736534;82;21337;-71
2021/05/23 02:02:38;;;;;;;6.00;1.42;;;;;;;15.47;67.62;101446.50;1708387;82;21179;-70
2021/05/23 02:05:14;;;;;;;4.08;2.22;;;;;;;15.53;67.62;101438.40;1708395;82;21206;-69
2021/05/23 02:07:47;;;;;;;3.77;2.27;;;;;;;15.60;67.32;101441.81;1738546;81;21471;-71
2021/05/23 02:10:21;;;;;;;6.60;2.10;;;;;;;15.69;67.30;101445.74;1729143;81;21859;-71
2021/05/23 02:12:55;;;;;;;4.50;2.20;;;;;;;15.73;67.47;101444.63;1751690;81;21211;-69
2021/05/23 02:15:27;;;;;;;4.33;1.92;;;;;;;15.75;67.62;101443.23;1728626;83;21326;-69
2021/05/23 02:18:02;;;;;;;4.80;2.20;;;;;;;15.74;68.04;101444.36;1773388;81;21499;-69
2021/05/23 02:20:35;;;;;;;6.28;2.25;;;;;;;15.74;68.04;101444.36;1773381;81;21214;-70
2021/05/23 02:23:19;;;;;;;7.22;2.60;;;;;;;15.82;68.80;101448.02;1782379;78;21668;-70
2021/05/23 02:25:53;;;;;;;8.50;2.30;;;;;;;15.92;68.45;101439.64;1805237;79;21345;-69
2021/05/23 02:28:25;;;;;;;;;;;;;;;16.05;67.87;101433.49;1807500;79;21932;-69
2021/05/23 02:30:58;;;;;;;6.05;2.47;;;;;;;16.08;67.87;101436.58;1804895;79;20291;-69
2021/05/23 02:33:32;;;;;;;10.68;2.70;;;;;;;16.07;67.55;101439.65;1804918;79;21321;-70
2021/05/23 02:36:05;;;;;;;7.30;2.33;;;;;;;16.06;67.56;101441.35;1805137;79;21684;-70
2021/05/23 02:38:39;;;;;;;4.78;2.80;;;;;;;16.03;67.49;101435.16;1805050;79;21298;-70
2021/05/23 02:41:12;;;;;;;7.20;2.65;;;;;;;16.06;67.39;101435.75;1782120;79;21287;-70
2021/05/23 02:43:44;;;;;;;4.40;2.52;;;;;;;16.09;67.35;101450.04;1773291;81;21415;-71
2021/05/23 02:46:17;;;;;;;4.97;2.55;;;;;;;16.13;67.09;101445.54;1773278;81;21191;-69
2021/05/23 02:48:49;;;;;;;7.97;3.00;;;;;;;16.18;67.05;101442.75;1773768;81;21270;-70
2021/05/23 02:51:22;;;;;;;6.67;2.60;;;;;;;16.16;67.09;101446.40;1773591;81;21481;-70
2021/05/23 02:53:55;;;;;;;6.53;2.72;;;;;;;16.20;67.06;101440.50;1773288;81;21822;-70
2021/05/23 02:56:27;;;;;;;8.78;2.55;;;;;;;16.24;66.81;101445.84;1773524;81;21328;-69
2021/05/23 02:59:00;;;;;;;6.90;2.45;;;;;;;16.27;66.55;101452.30;1773427;81;21700;-69
2021/05/23 03:01:34;;;;;;;5.00;2.33;;;;;;;16.32;66.20;101451.73;1773364;81;21341;-70
2021/05/23 03:04:09;;;;;;;4.50;2.47;;;;;;;16.38;66.07;101452.59;1773748;79;22493;-71
2021/05/23 03:06:42;;;;;;;5.03;2.35;;;;;;;16.42;65.92;101459.33;1736270;81;21347;-70
2021/05/23 03:09:14;;;;;;;10.13;2.10;;;;;;;16.44;66.12;101456.53;1779143;80;21250;-69
2021/05/23 03:11:47;;;;;;;4.70;2.17;;;;;;;16.55;66.75;101458.77;1744361;82;21331;-69
2021/05/23 03:14:19;;;;;;;8.53;2.20;;;;;;;16.77;66.89;101454.53;1744723;82;21197;-69
2021/05/23 03:16:54;;;;;;;7.85;3.98;;;;;;;17.05;66.22;101458.13;1744328;82;21217;-71
2021/05/23 03:19:27;;;;;;;4.50;2.20;;;;;;;17.23;65.08;101449.09;1744314;82;21154;-70
2021/05/23 03:22:01;;;;;;;7.80;2.63;;;;;;;17.32;64.28;101457.77;1707354;83;21201;-71
2021/05/23 03:24:34;;;;;;;9.90;3.47;;;;;;;17.29;63.81;101455.52;1744471;82;21355;-69
2021/05/23 03:27:07;;;;;;;9.58;2.80;;;;;;;17.19;63.77;101444.34;1707094;84;21244;-70
2021/05/23 03:29:40;;;;;;;12.50;3.50;;;;;;;17.11;64.01;101453.34;1744560;82;21368;-70
2021/05/23 03:32:12;;;;;;;4.65;2.47;;;;;;;17.04;64.26;101448.59;1733944;82;21451;-69
2021/05/23 03:34:45;;;;;;;10.75;3.30;;;;;;;16.98;64.64;101444.97;1729092;82;21336;-70
2021/05/23 03:37:18;;;;;;;8.03;2.30;;;;;;;16.93;64.85;101442.16;1714743;83;21631;-71
2021/05/23 03:39:51;;;;;;;6.97;2.75;;;;;;;16.92;65.18;101434.88;1728205;83;21326;-71
2021/05/23 03:42:24;;;;;;;14.43;2.47;;;;;;;16.93;65.32;101444.97;1743669;82;21901;-71
2021/05/23 03:44:56;;;;;;;7.22;2.52;;;;;;;16.93;65.62;101452.53;1741380;81;21321;-70
2021/05/23 03:47:31;;;;;;;7.55;2.83;;;;;;;16.98;65.77;101448.32;1741501;82;21242;-69
2021/05/23 03:50:07;;;;;;;8.50;2.33;;;;;;;17.02;66.09;101455.05;1741619;82;21707;-70
2021/05/23 03:52:40;;;;;;;9.45;2.98;;;;;;;17.06;66.18;101447.18;1748959;81;21333;-68
2021/05/23 03:55:13;;;;;;;17.27;2.80;;;;;;;17.11;66.32;101441.55;1769454;81;21388;-70
2021/05/23 03:57:45;;;;;;;10.30;2.70;;;;;;;17.18;66.62;101444.90;1769782;81;21799;-69
2021/05/23 04:00:20;;;;;;;16.55;2.85;;;;;;;17.29;66.71;101445.14;1769801;81;21325;-69
2021/05/23 04:02:55;;;;;;;8.75;2.80;;;;;;;17.41;67.02;101447.64;1742068;81;21238;-72
2021/05/23 04:05:28;;;;;;;9.35;2.72;;;;;;;17.53;66.93;101443.94;1744382;82;21408;-71
2021/05/23 04:08:01;;;;;;;11.78;2.80;;;;;;;17.64;66.93;101445.03;1758689;81;21797;-69
2021/05/23 04:10:42;;;;;;;13.60;3.55;;;;;;;17.75;66.80;101446.63;1737961;82;21380;-73
2021/05/23 04:13:14;;;;;;;11.57;4.00;;;;;;;17.88;66.70;101453.59;1805072;79;21351;-69
2021/05/23 04:15:49;;;;;;;20.90;3.70;;;;;;;17.96;66.72;101455.23;1805051;79;21681;-70
2021/05/23 04:18:22;;;;;;;17.47;2.67;;;;;;;18.05;66.75;101456.28;1805557;79;21176;-69
2021/05/23 04:20:54;;;;;;;8.18;3.12;;;;;;;18.17;66.34;101465.78;1805080;78;21412;-70
2021/05/23 04:23:27;;;;;;;9.75;2.60;;;;;;;18.52;66.70;101471.17;1805330;79;21222;-69
2021/05/23 04:26:00;;;;;;;8.38;2.70;;;;;;;19.08;65.48;101484.41;1805266;79;21815;-70
2021/05/23 04:28:33;;;;;;;6.37;2.70;;;;;;;19.65;64.42;101486.31;1805189;79;21356;-71
2021/05/23 04:31:05;;;;;;;10.63;2.47;;;;;;;20.37;63.35;101488.11;1805071;79;21203;-69
2021/05/23 04:33:40;;;;;;;4.97;2.30;;;;;;;21.03;61.18;101492.94;1805066;79;21339;-69
2021/05/23 04:36:12;;;;;;;5.95;2.12;;;;;;;21.65;58.95;101493.68;1788706;79;21241;-71
2021/05/23 04:38:45;;;;;;;5.60;2.45;;;;;;;22.08;57.72;101488.55;1773487;81;21348;-70
2021/05/23 04:41:18;;;;;;;7.17;2.05;;;;;;;22.51;57.13;101491.23;1736526;81;21320;-70
2021/05/23 04:43:50;;;;;;;10.05;2.50;;;;;;;22.94;55.12;101493.23;1773925;81;21372;-71
2021/05/23 04:46:24;;;;;;;7.85;1.92;;;;;;;23.14;53.93;101498.92;1736518;82;21367;-70
2021/05/23 04:48:57;;;;;;;6.35;2.37;;;;;;;23.17;53.11;101492.66;1735248;81;21367;-71
2021/05/23 04:51:30;;;;;;;5.00;1.92;;;;;;;23.08;53.10;101497.39;1788419;79;21321;-73
2021/05/23 04:54:02;;;;;;;8.43;2.25;;;;;;;23.19;53.07;101495.42;1793294;79;21461;-69
2021/05/23 04:56:35;;;;;;;7.67;2.77;;;;;;;23.32;53.16;101496.47;1796379;79;21917;-71
2021/05/23 04:59:08;;;;;;;3.45;1.90;;;;;;;23.60;53.17;101499.38;1789525;79;21994;-73
2021/05/23 05:01:41;;;;;;;6.75;1.50;;;;;;;23.95;52.30;101501.20;1787231;79;21365;-74
2021/05/23 05:04:14;;;;;;;5.53;1.97;;;;;;;24.20;51.41;101493.31;1787134;79;21361;-72
2021/05/23 05:06:46;;;;;;;10.78;2.83;;;;;;;24.17;50.82;101493.96;1790560;79;21407;-72
2021/05/23 05:09:20;;;;;;;3.10;1.82;;;;;;;24.07;50.87;101498.56;1795463;79;21332;-70
2021/05/23 05:11:55;;;;;;;6.03;1.90;;;;;;;24.26;51.10;101496.25;1794982;79;21658;-71
2021/05/23 05:14:27;;;;;;;4.97;1.80;;;;;;;24.67;50.57;101490.92;1805858;79;21865;-72
2021/05/23 05:17:00;;;;;;;6.20;2.23;;;;;;;25.06;49.56;101483.62;1787411;79;21245;-72
2021/05/23 05:19:32;;;;;;;4.83;1.82;;;;;;;25.22;48.83;101486.15;1787271;80;21321;-72
2021/05/23 05:22:05;;;;;;;6.47;1.90;;;;;;;25.31;49.01;101494.12;1787233;79;21680;-73
2021/05/23 05:24:39;;;;;;;4.55;1.70;;;;;;;25.52;48.97;101500.72;1786929;80;21414;-72
2021/05/23 05:27:12;;;;;;;5.00;2.33;;;;;;;25.66;48.30;101514.16;1787327;79;21371;-73
2021/05/23 05:29:44;;;;;;;5.58;2.22;;;;;;;25.70;47.82;101513.13;1798711;79;21360;-75
2021/05/23 05:32:17;;;;;;;3.85;1.60;;;;;;;25.76;47.88;101505.22;1803513;79;21328;-72
2021/05/23 05:34:50;;;;;;;15.33;2.13;;;;;;;25.89;47.77;101499.88;1801011;79;21349;-76
2021/05/23 05:37:22;;;;;;;4.67;1.87;;;;;;;26.07;47.79;101494.36;1810537;79;21371;-68
2021/05/23 05:39:55;;;;;;;7.75;1.90;;;;;;;26.33;47.06;101487.92;1789651;79;21194;-71
2021/05/23 05:42:28;;;;;;;2.37;1.80;;;;;;;26.56;46.48;101485.83;1803033;79;21353;-70
2021/05/23 05:45:00;;;;;;;2.37;1.60;;;;;;;26.80;46.09;101489.38;1808676;79;22203;-74
2021/05/23 05:47:33;;;;;;;4.90;1.70;;;;;;;27.10;45.70;101493.19;1787073;79;21471;-66
2021/05/23 05:50:06;;;;;;;;;;;;;;;27.38;44.64;101494.23;1808436;79;21332;-66
2021/05/23 05:52:39;;;;;;;6.17;1.87;;;;;;;27.51;44.39;101495.95;1804985;79;20260;-73
2021/05/23 05:55:13;;;;;;;3.72;2.00;;;;;;;27.80;44.85;101498.60;1798202;79;21851;-73
2021/05/23 05:57:46;;;;;;;6.47;2.00;;;;;;;28.26;44.23;101483.83;1796666;79;21317;-67
2021/05/23 06:00:21;;;;;;;5.83;2.40;;;;;;;28.67;43.77;101487.20;1787425;80;21320;-67
2021/05/23 06:02:56;;;;;;;6.30;2.20;;;;;;;29.06;42.43;101480.64;1813440;79;21333;-66
2021/05/23 06:05:32;;;;;;;8.65;2.90;;;;;;;29.23;41.21;101477.42;1791228;79;21159;-70
2021/05/23 06:08:08;;;;;;;8.13;2.15;;;;;;;29.20;41.20;101481.03;1800604;79;21442;-72
2021/05/23 06:10:42;;;;;;;14.63;2.45;;;;;;;29.24;41.51;101483.98;1799300;79;21333;-86
2021/05/23 06:13:15;;;;;;;4.78;1.92;;;;;;;29.40;41.43;101488.53;1799943;79;21245;-84
2021/05/23 06:15:48;;;;;;;8.25;2.75;;;;;;;29.62;41.61;101486.52;1794854;79;21222;-78
2021/05/23 06:18:27;;;;;;;6.28;2.10;;;;;;;29.78;40.91;101481.59;1797559;79;21302;-72
2021/05/23 06:21:00;;;;;;;7.65;2.40;;;;;;;29.69;40.38;101480.96;1805153;78;21400;-72
2021/05/23 06:23:33;;;;;;;4.30;2.10;;;;;;;29.73;40.97;101486.78;1805228;79;21649;-66
2021/05/23 06:26:12;;;;;;;8.28;2.80;;;;;;;29.70;40.58;101489.78;1805111;79;21396;-67
2021/05/23 06:28:42;;;;;;;4.28;2.12;;;;;;;29.39;40.82;101501.78;1781801;79;21166;-67
2021/05/23 06:31:15;;;;;;;4.20;2.55;;;;;;;29.03;40.31;101504.25;1787752;79;21433;-67
2021/05/23 06:33:49;;;;;;;3.75;2.27;;;;;;;28.92;41.21;101513.70;1787187;79;21181;-67
2021/05/23 06:36:23;;;;;;;4.72;3.33;;;;;;;29.16;41.83;101506.47;1793134;79;21164;-67
2021/05/23 06:38:56;;;;;;;5.90;1.72;;;;;;;29.53;41.21;101510.19;1785138;79;21361;-67
2021/05/23 06:41:28;;;;;;;2.85;1.87;;;;;;;29.87;40.89;101502.31;1789461;79;21243;-68
2021/05/23 06:44:06;;;;;;;8.68;1.87;;;;;;;30.22;40.69;101500.36;1788477;79;21317;-70
2021/05/23 06:46:38;;;;;;;8.08;2.05;;;;;;;30.49;39.59;101497.91;1804964;79;21329;-74
2021/05/23 06:49:11;;;;;;;10.43;3.12;;;;;;;30.63;39.78;101493.92;1799704;79;21372;-74
2021/05/23 06:51:44;;;;;;;6.60;1.82;;;;;;;30.65;38.61;101493.00;1804776;79;21396;-75
2021/05/23 06:54:16;;;;;;;;;;;;;;;30.79;37.70;101491.02;1807217;79;21238;-74
2021/05/23 06:56:49;;;;;;;8.08;2.60;;;;;;;30.80;38.03;101483.47;1805424;79;20263;-76
2021/05/23 06:59:23;;;;;;;8.75;2.72;;;;;;;30.96;37.13;101484.83;1800567;79;21314;-74
2021/05/23 07:01:56;;;;;;;6.00;2.12;;;;;;;31.09;36.34;101474.25;1795546;79;21171;-73
2021/05/23 07:04:28;;;;;;;6.15;2.30;;;;;;;31.15;36.28;101481.34;1789643;78;21247;-73
2021/05/23 07:07:01;;;;;;;6.17;2.50;;;;;;;31.20;35.68;101476.77;1790774;79;21309;-72
2021/05/23 07:09:34;;;;;;;4.70;2.10;;;;;;;31.23;36.02;101478.05;1786343;79;22381;-73
2021/05/23 07:12:08;;;;;;;5.08;2.25;;;;;;;31.22;36.05;101468.59;1789189;79;21888;-71
2021/05/23 07:14:42;;;;;;;4.15;2.17;;;;;;;31.26;36.11;101472.37;1787987;79;21816;-74
2021/05/23 07:17:15;;;;;;;5.10;2.02;;;;;;;31.31;36.03;101464.88;1787383;79;21240;-73
2021/05/23 07:19:48;;;;;;;7.17;1.85;;;;;;;31.20;35.48;101473.05;1795503;79;21364;-72
2021/05/23 07:22:21;;;;;;;5.75;2.27;;;;;;;30.95;34.71;101459.61;1789089;79;21169;-72
2021/05/23 07:24:53;;;;;;;4.15;1.85;;;;;;;30.85;35.95;101467.39;1787353;79;21171;-72
2021/05/23 07:27:26;;;;;;;;;;;;;;;30.81;36.34;101462.80;1794378;79;21254;-72
2021/05/23 07:29:59;;;;;;;4.22;2.27;;;;;;;30.81;35.92;101467.09;1795209;79;20265;-72
2021/05/23 07:32:31;;;;;;;4.37;2.20;;;;;;;30.75;34.84;101470.04;1781353;79;21737;-72
2021/05/23 07:35:04;;;;;;;3.90;2.25;;;;;;;30.63;34.72;101479.58;1793288;78;21298;-73
2021/05/23 07:37:38;;;;;;;6.35;2.12;;;;;;;30.62;36.15;101477.11;1795561;79;21310;-71
2021/05/23 07:40:17;;;;;;;7.47;3.47;;;;;;;30.64;36.69;101474.71;1783478;79;21297;-73
2021/05/23 07:42:50;;;;;;;10.43;5.03;;;;;;;30.69;36.48;101478.09;1790837;79;21320;-72
2021/05/23 07:45:24;;;;;;;11.18;5.05;;;;;;;30.64;36.75;101479.86;1788716;79;21216;-72
2021/05/23 07:47:58;;;;;;;4.92;3.12;;;;;;;30.46;36.90;101484.34;1787031;79;21381;-71
2021/05/23 07:50:30;;;;;;;6.15;2.10;;;;;;;30.20;36.68;101486.16;1803532;78;21273;-73
2021/05/23 07:53:03;;;;;;;14.45;3.95;;;;;;;30.03;36.82;101477.34;1774474;79;21862;-66
2021/05/23 07:55:37;;;;;;;9.95;3.20;;;;;;;29.93;37.69;101484.22;1787282;79;21674;-68
2021/05/23 07:58:10;;;;;;;3.98;2.70;;;;;;;29.77;38.22;101492.83;1786881;79;21231;-73
2021/05/23 08:00:43;;;;;;;9.53;3.67;;;;;;;29.53;38.77;101496.48;1786642;79;21623;-69
2021/05/23 08:03:16;;;;;;;7.25;3.12;;;;;;;29.30;38.97;101487.66;1775858;79;21352;-67
2021/05/23 08:05:49;;;;;;;8.28;2.52;;;;;;;29.20;40.04;101491.63;1786962;79;21171;-73
2021/05/23 08:08:25;;;;;;;8.28;2.27;;;;;;;29.10;39.74;101492.19;1791841;79;21311;-75
2021/05/23 08:10:57;;;;;;;5.47;2.17;;;;;;;28.93;39.54;101481.83;1777710;79;21265;-72
2021/05/23 08:13:30;;;;;;;5.40;2.15;;;;;;;28.75;39.13;101488.25;1787239;79;21305;-76
2021/05/23 08:16:05;;;;;;;4.08;2.60;;;;;;;28.43;38.95;101484.41;1782902;79;21226;-65
2021/05/23 08:18:38;;;;;;;2.62;2.00;;;;;;;28.22;40.64;101479.42;1750235;81;21745;-69
2021/05/23 08:21:11;;;;;;;3.65;2.45;;;;;;;28.05;40.79;101481.11;1782634;79;21215;-67
2021/05/23 08:23:44;;;;;;;6.58;2.37;;;;;;;27.95;41.17;101480.77;1773600;81;21372;-66
2021/05/23 08:26:17;;;;;;;5.72;2.85;;;;;;;27.82;41.70;101473.39;1781051;79;21174;-75
2021/05/23 08:28:52;;;;;;;12.00;2.62;;;;;;;27.73;41.31;101484.05;1786726;79;21387;-76
2021/05/23 08:31:25;;;;;;;7.33;2.25;;;;;;;27.65;41.06;101488.68;1778777;79;21171;-66
2021/05/23 08:33:59;;;;;;;5.42;2.42;;;;;;;27.65;40.68;101490.11;1779043;79;21344;-68
2021/05/23 08:36:31;;;;;;;9.08;3.08;;;;;;;27.65;40.27;101491.53;1799204;79;21234;-70
2021/05/23 08:39:05;;;;;;;6.47;2.98;;;;;;;27.64;40.56;101484.16;1797370;79;21392;-75
2021/05/23 08:41:37;;;;;;;4.75;2.72;;;;;;;27.67;41.22;101485.48;1785791;79;21724;-74
2021/05/23 08:44:10;;;;;;;5.90;2.65;;;;;;;27.70;41.54;101484.17;1785623;79;21811;-73
2021/05/23 08:46:44;;;;;;;8.53;5.12;;;;;;;27.68;41.95;101479.42;1790054;79;21364;-73
2021/05/23 08:49:22;;;;;;;5.58;2.90;;;;;;;27.59;41.28;101484.39;1781469;79;21190;-66
2021/05/23 08:51:56;;;;;;;16.10;3.37;;;;;;;27.39;38.85;101484.51;1776681;79;21291;-67
2021/05/23 08:54:30;;;;;;;11.93;2.87;;;;;;;27.21;39.14;101477.91;1795312;79;21896;-74
2021/05/23 08:57:02;;;;;;;9.23;3.40;;;;;;;27.08;39.29;101487.83;1774040;79;21149;-70
2021/05/23 08:59:36;;;;;;;6.42;3.08;;;;;;;27.01;41.33;101488.77;1730448;83;21729;-71
2021/05/23 09:02:09;;;;;;;7.23;3.17;;;;;;;26.85;41.55;101487.16;1730650;83;21258;-70
2021/05/23 09:04:52;;;;;;;4.95;3.33;;;;;;;26.67;42.47;101491.93;1730716;83;21736;-70
2021/05/23 09:07:25;;;;;;;13.72;4.17;;;;;;;26.34;42.86;101491.01;1730321;83;21670;-71
2021/05/23 09:09:58;;;;;;;8.28;3.30;;;;;;;26.05;43.67;101508.97;1730676;83;21211;-68
2021/05/23 09:12:31;;;;;;;10.40;3.30;;;;;;;25.85;44.32;101506.84;1730792;82;21559;-69
2021/05/23 09:15:07;;;;;;;6.53;3.20;;;;;;;25.79;44.66;101505.98;1731825;82;21529;-72
2021/05/23 09:17:43;;;;;;;5.15;3.25;;;;;;;25.72;44.47;101507.11;1728198;80;22074;-72
2021/05/23 09:20:19;;;;;;;8.15;3.42;;;;;;;25.57;44.86;101499.97;1787789;80;21376;-73
2021/05/23 09:22:53;;;;;;;11.88;3.37;;;;;;;25.50;44.63;101491.70;1787953;80;21373;-66
2021/05/23 09:25:36;;;;;;;5.05;3.12;;;;;;;25.43;44.54;101494.25;1787510;80;21330;-75
2021/05/23 09:28:09;;;;;;;6.62;3.77;;;;;;;25.32;44.67;101488.67;1785214;80;21338;-66
2021/05/23 09:30:47;;;;;;;11.30;4.70;;;;;;;25.22;43.18;101492.69;1786983;79;21263;-69
2021/05/23 09:33:23;;;;;;;9.10;5.37;;;;;;;25.22;43.18;101492.69;1786813;80;21650;-68
2021/05/23 09:35:56;;;;;;;12.13;6.45;;;;;;;25.21;43.16;101493.02;1799697;79;21309;-69
2021/05/23 09:38:29;;;;;;;5.55;3.92;;;;;;;25.20;42.82;101495.05;1804247;79;21368;-71
2021/05/23 09:41:41;;;;;;;6.22;3.92;;;;;;;25.22;42.94;101497.52;1802216;79;21401;-71
2021/05/23 09:44:15;;;;;;;12.80;3.85;;;;;;;25.23;42.90;101498.61;1776741;79;21284;-73
2021/05/23 09:47:04;;;;;;;5.05;3.80;;;;;;;25.20;43.60;101491.35;1779762;80;21203;-70
2021/05/23 09:49:50;;;;;;;9.23;3.30;;;;;;;25.16;44.38;101500.30;1779923;80;21405;-70
2021/05/23 09:52:38;;;;;;;6.90;3.15;;;;;;;25.10;45.66;101501.66;1772141;80;21265;-69
2021/05/23 09:55:16;;;;;;;8.70;3.45;;;;;;;25.04;45.75;101501.58;1773389;80;21323;-70
2021/05/23 09:57:49;;;;;;;4.97;2.72;;;;;;;24.93;45.97;101499.68;1780831;80;21379;-71
2021/05/23 10:00:22;;;;;;;5.65;3.20;;;;;;;24.95;46.08;101490.25;1778097;80;21372;-72
2021/05/23 10:02:58;;;;;;;5.47;3.42;;;;;;;25.03;46.77;101489.39;1767957;80;21721;-72
2021/05/23 10:05:30;;;;;;;6.22;3.35;;;;;;;25.07;47.12;101496.66;1781414;80;21440;-73
2021/05/23 10:08:19;;;;;;;5.47;4.17;;;;;;;25.09;47.31;101495.72;1783879;80;21178;-73
2021/05/23 10:10:53;;;;;;;6.75;4.05;;;;;;;25.08;46.87;101490.64;1779905;79;21690;-69
2021/05/23 10:13:26;;;;;;;11.38;3.75;;;;;;;25.06;46.52;101502.92;1771467;80;21952;-72
2021/05/23 10:15:59;;;;;;;13.65;3.17;;;;;;;24.99;46.20;101506.86;1777775;80;21687;-70
2021/05/23 10:18:31;;;;;;;5.60;2.62;;;;;;;24.91;46.33;101502.03;1778312;80;21421;-69
2021/05/23 10:21:04;;;;;;;5.72;3.15;;;;;;;24.89;46.07;101500.70;1776179;80;21812;-71
2021/05/23 10:23:59;;;;;;;8.43;2.87;;;;;;;24.93;45.22;101497.44;1773681;80;21184;-72
2021/05/23 10:26:35;;;;;;;5.78;2.42;;;;;;;25.04;43.08;101495.89;1763829;80;21362;-69
2021/05/23 10:29:07;;;;;;;2.93;2.40;;;;;;;25.14;40.90;101504.08;1774708;80;21170;-69
2021/05/23 10:31:40;;;;;;;5.75;2.50;;;;;;;25.21;42.16;101495.86;1779278;80;21329;-69
2021/05/23 10:34:12;;;;;;;3.62;2.22;;;;;;;25.26;41.99;101501.41;1753216;80;21823;-70
2021/05/23 10:36:46;;;;;;;3.08;2.10;;;;;;;25.31;42.32;101502.65;1772560;80;21377;-71
2021/05/23 10:39:19;;;;;;;6.17;2.72;;;;;;;25.35;43.38;101496.55;1713609;83;21588;-70
2021/05/23 10:41:51;;;;;;;3.83;2.37;;;;;;;25.41;44.34;101497.42;1716712;83;21682;-71
2021/05/23 10:44:26;;;;;;;9.35;2.22;;;;;;;25.45;43.22;101495.58;1727103;82;21333;-67
2021/05/23 10:46:58;;;;;;;7.05;2.45;;;;;;;25.48;42.17;101499.75;1701803;83;21343;-71
2021/05/23 10:49:31;;;;;;;6.30;2.55;;;;;;;25.50;42.84;101505.36;1665264;85;21260;-73
2021/05/23 10:52:04;;;;;;;3.75;2.77;;;;;;;25.50;41.72;101497.39;1701162;83;21383;-70
2021/05/23 10:54:40;;;;;;;3.05;2.58;;;;;;;25.43;42.18;101500.75;1718913;82;21229;-69
2021/05/23 10:57:16;;;;;;;4.28;2.35;;;;;;;25.43;43.00;101502.78;1702139;83;21472;-70
2021/05/23 10:59:58;;;;;;;6.22;2.60;;;;;;;25.42;43.18;101508.23;1694853;83;21287;-71
2021/05/23 11:02:40;;;;;;;7.55;2.77;;;;;;;25.38;42.96;101505.23;1700152;83;21205;-70
2021/05/23 11:05:22;;;;;;;5.72;2.50;;;;;;;25.35;42.99;101502.23;1708850;83;21351;-73
2021/05/23 11:08:12;;;;;;;7.47;2.55;;;;;;;25.34;43.32;101499.11;1712684;83;21383;-74
2021/05/23 11:10:50;;;;;;;4.95;2.90;;;;;;;25.35;43.57;101506.50;1696884;83;21723;-73
2021/05/23 11:13:37;;;;;;;3.47;2.40;;;;;;;25.37;43.50;101504.14;1699018;83;21857;-69
2021/05/23 11:16:21;;;;;;;7.30;2.30;;;;;;;25.38;43.25;101501.54;1700809;83;21386;-73
2021/05/23 11:18:51;;;;;;;9.03;3.77;;;;;;;25.39;43.20;101498.94;1696526;83;21218;-72
2021/05/23 11:21:23;;;;;;;9.53;3.10;;;;;;;25.34;44.74;101494.27;1701953;82;21356;-70
2021/05/23 11:23:57;;;;;;;3.40;3.10;;;;;;;25.31;44.95;101499.81;1703978;83;21218;-78
2021/05/23 11:26:32;;;;;;;;;;;;;;;25.28;45.33;101498.47;1695606;83;21348;-74
2021/05/23 11:29:03;;;;;;;4.67;2.83;;;;;;;25.30;44.75;101511.76;1704473;83;20262;-74
2021/05/23 11:31:44;;;;;;;6.30;3.30;;;;;;;25.34;43.69;101503.38;1693690;83;22059;-73
2021/05/23 11:34:22;;;;;;;5.87;3.30;;;;;;;25.35;44.51;101512.19;1708472;83;21763;-72
2021/05/23 11:36:57;;;;;;;5.70;2.95;;;;;;;25.29;44.36;101504.41;1703772;83;21195;-71
2021/05/23 11:39:31;;;;;;;7.28;2.87;;;;;;;25.26;44.55;101505.67;1700345;84;21420;-73
2021/05/23 11:42:05;;;;;;;6.97;3.10;;;;;;;25.25;44.16;101502.59;1682436;84;21679;-70
2021/05/23 11:44:40;;;;;;;7.60;2.87;;;;;;;25.16;44.61;101503.99;1692560;84;21412;-70
2021/05/23 11:47:13;;;;;;;7.90;3.30;;;;;;;25.08;44.95;101511.97;1763470;81;21258;-69
2021/05/23 11:49:47;;;;;;;7.08;3.22;;;;;;;25.04;45.45;101509.53;1764188;81;21401;-75
2021/05/23 11:52:20;;;;;;;10.85;2.98;;;;;;;25.04;45.26;101510.11;1759743;81;21447;-78
2021/05/23 11:54:59;;;;;;;8.43;2.92;;;;;;;25.01;45.12;101517.33;1696133;84;21831;-71
2021/05/23 11:57:31;;;;;;;9.78;3.22;;;;;;;24.99;45.14;101513.97;1705154;83;21269;-78
2021/05/23 12:00:08;;;;;;;7.55;3.92;;;;;;;24.98;45.21;101511.45;1711136;84;21802;-75